AirSardinia Virtual Manager

AirSardinia Virtual La prima compagnia sarda di volo simulato




 METAR AND TAF INFORMATION
METAR FOR WBGG
ADDS - METARS form results

(1756 UTC 26 June 2019)
Data provider http://aviationweather.gov/metar/data/
 
METAR text: WBGG 261730Z VRB02KT 9999 FEW020 BKN300 25/24 Q1010 NOSIG
Conditions at: WBGG (KUCHING (CIV/MIL, MY) observed 1730 UTC 26 June 2019
Temperature: 25.0°C (77°F)
Dewpoint: 24.0°C (75°F) [RH = 94%]
Pressure (altimeter): 29.82 inches Hg (1010.0 mb)
Winds: variable direction winds at 2 MPH (2 knots; 1.0 m/s)
Visibility: 6 or more miles (10+ km)
Ceiling: 30000 feet AGL
Clouds: few clouds at 2000 feet AGL
broken clouds at 30000 feet AGL
Weather: no significant weather observed at this time

METAR text: WBGG 261700Z VRB02KT 9999 FEW020 BKN300 25/24 Q1010 NOSIG
Conditions at: WBGG (KUCHING (CIV/MIL, MY) observed 1700 UTC 26 June 2019
Temperature: 25.0°C (77°F)
Dewpoint: 24.0°C (75°F) [RH = 94%]
Pressure (altimeter): 29.82 inches Hg (1010.0 mb)
Winds: variable direction winds at 2 MPH (2 knots; 1.0 m/s)
Visibility: 6 or more miles (10+ km)
Ceiling: 30000 feet AGL
Clouds: few clouds at 2000 feet AGL
broken clouds at 30000 feet AGL
Weather: no significant weather observed at this time

Forecast for: WBGG (KUCHING (CIV/MIL, MY)
Text: TAF WBGG 261700Z 2618/2718 VRB03KT 9999 FEW020
Forecast period: 1800 UTC 26 June 2019 to 1800 UTC 27 June 2019
Forecast type: FROM: standard forecast or significant change
Winds: variable direction winds at 3 MPH (3 knots; 1.5 m/s)
Visibility: 6 or more miles 10+ km)
Ceiling: at least 12,000 feet AGL
Clouds: few clouds at 2000 feet AGL
Weather: no significant weather forecast for this period
Text: TEMPO 2707/2711 30006KT 4000 TSRA FEW015CB SCT020
Forecast period: 0700 to 1100 UTC 27 June 2019
Forecast type: TEMPORARY: The following changes expected for less than half the time period
Winds: from the WNW (300 degrees) at 7 MPH (6 knots; 3.1 m/s)
Visibility: 2.49 miles (4.01 km)
Ceiling: at least 12,000 feet AGL
Clouds: few clouds at 1500 feet AGL
scattered clouds at 2000 feet AGL
Weather: TSRA  (rain associated with thunderstorm(s))

 AIRPORT MAP

 RUNWAY INFORMATION
Runway 07 Runway length 8051 ft Runway width 151 ft
Runway elevation 88 ft Runway displaced threshold 0 ft Runway heading 68
Runway 25 Runway length 8051 ft Runway width 151 ft
Runway elevation 75 ft Runway displaced threshold 320 ft Runway heading 248

 AIRPORT FREQUENCIES
Type ACC Name RDR Frequency 134.5 MHz
Type APP Name APP DIRECT Frequency 120.2 MHz
Type ATIS Name ATIS Frequency 128.4 MHz
Type GND Name GND Frequency 121.9 MHz
Type TWR Name TWR Frequency 118.1 MHz

 AIRPORT NEAR NAVIGATION AIDS
Type NDB Name Kuching Frequency 402 kHz
Type VOR-DME Name Kuching Frequency 114.5 MHz